createdAt,value
2022-11-23T00:01:52.632Z,6.48
2022-11-23T00:04:54.108Z,6.50
2022-11-23T00:07:55.723Z,6.53
2022-11-23T00:11:00.562Z,6.57
2022-11-23T00:14:02.002Z,6.57
2022-11-23T00:20:22.632Z,6.62
2022-11-23T00:23:24.070Z,6.66
2022-11-23T00:26:25.555Z,6.66
2022-11-23T00:29:26.947Z,6.68
2022-11-23T00:32:31.845Z,6.66
2022-11-23T00:35:33.285Z,6.67
2022-11-23T00:38:36.195Z,6.66
2022-11-23T00:41:37.648Z,6.68
2022-11-23T00:44:39.086Z,6.69
2022-11-23T00:47:41.576Z,6.72
2022-11-23T00:50:42.993Z,6.78
2022-11-23T00:53:44.606Z,6.79
2022-11-23T00:56:46.042Z,6.81
2022-11-23T00:59:47.553Z,6.81
2022-11-23T01:02:49.009Z,6.84
2022-11-23T01:05:50.511Z,6.85
2022-11-23T01:08:57.464Z,6.85
2022-11-23T01:11:58.936Z,6.86
2022-11-23T01:15:00.423Z,6.85
2022-11-23T01:18:03.501Z,6.89
2022-11-23T01:21:06.803Z,6.95
2022-11-23T01:24:19.978Z,6.95
2022-11-23T01:27:21.451Z,6.93
2022-11-23T01:30:25.312Z,6.94
2022-11-23T01:33:27.076Z,6.91
2022-11-23T01:36:31.364Z,6.90
2022-11-23T01:39:33.062Z,6.89
2022-11-23T01:42:58.005Z,6.87
2022-11-23T01:46:00.587Z,6.83
2022-11-23T01:49:04.853Z,6.83
2022-11-23T01:52:09.785Z,6.82
2022-11-23T01:55:11.309Z,6.84
2022-11-23T01:58:16.059Z,6.78
2022-11-23T02:01:17.758Z,6.73
2022-11-23T02:04:27.440Z,6.76
2022-11-23T02:07:29.609Z,6.74
2022-11-23T02:10:31.868Z,6.76
2022-11-23T02:13:33.508Z,6.73
2022-11-23T02:16:37.287Z,6.70
2022-11-23T02:19:38.711Z,6.68
2022-11-23T02:22:59.051Z,6.65
2022-11-23T02:26:07.364Z,6.61
2022-11-23T02:29:15.969Z,6.57
2022-11-23T02:32:24.325Z,6.57
2022-11-23T02:35:30.623Z,6.54
2022-11-23T02:38:34.049Z,6.49
2022-11-23T02:41:48.204Z,6.53
2022-11-23T02:44:49.930Z,6.51
2022-11-23T02:47:51.362Z,6.50
2022-11-23T02:50:52.852Z,6.51
2022-11-23T02:53:54.264Z,6.52
2022-11-23T02:56:55.887Z,6.47
2022-11-23T02:59:57.357Z,6.44
2022-11-23T03:03:01.440Z,6.42
2022-11-23T03:06:02.959Z,6.47
2022-11-23T03:09:07.674Z,6.50
2022-11-23T03:12:09.178Z,6.53
2022-11-23T03:15:10.885Z,6.59
2022-11-23T03:18:15.473Z,6.62
2022-11-23T03:21:18.128Z,6.67
2022-11-23T03:24:19.883Z,6.72
2022-11-23T03:27:22.945Z,6.73
2022-11-23T03:30:25.779Z,6.74
2022-11-23T03:33:28.314Z,6.75
2022-11-23T03:36:29.839Z,6.80
2022-11-23T03:39:32.074Z,6.80
2022-11-23T03:42:52.330Z,6.79
2022-11-23T03:45:53.941Z,6.81
2022-11-23T03:48:55.580Z,6.79
2022-11-23T03:51:57.176Z,6.81
2022-11-23T03:54:58.656Z,6.81
2022-11-23T03:58:01.014Z,6.81
2022-11-23T04:01:06.629Z,6.83
2022-11-23T04:04:08.647Z,6.81
2022-11-23T04:07:42.314Z,6.76
2022-11-23T04:10:44.603Z,6.80
2022-11-23T04:13:49.880Z,6.81
2022-11-23T04:16:52.780Z,6.82
2022-11-23T04:19:54.791Z,6.81
2022-11-23T04:22:56.349Z,6.83
2022-11-23T04:25:59.442Z,6.86
2022-11-23T04:29:01.071Z,6.82
2022-11-23T04:32:04.041Z,6.85
2022-11-23T04:35:05.765Z,6.85
2022-11-23T04:38:08.435Z,6.85
2022-11-23T04:41:11.418Z,6.84
2022-11-23T04:44:14.112Z,6.85
2022-11-23T04:47:16.576Z,6.87
2022-11-23T04:50:21.139Z,6.90
2022-11-23T04:53:28.847Z,6.94
2022-11-23T04:56:31.892Z,6.98
2022-11-23T04:59:33.651Z,6.97
2022-11-23T05:02:35.382Z,6.99
2022-11-23T05:05:44.691Z,7.00
2022-11-23T05:08:46.123Z,7.02
2022-11-23T05:12:01.907Z,7.01
2022-11-23T05:15:05.288Z,7.04
2022-11-23T05:18:11.713Z,7.03
2022-11-23T05:21:14.245Z,6.98
2022-11-23T05:24:16.327Z,6.98
2022-11-23T05:27:27.994Z,7.00
2022-11-23T05:30:31.183Z,6.99
2022-11-23T05:33:32.648Z,7.00
2022-11-23T05:36:39.568Z,6.95
2022-11-23T05:39:43.461Z,6.88
2022-11-23T05:42:45.085Z,6.88
2022-11-23T05:45:52.327Z,6.84
2022-11-23T05:48:54.978Z,6.76
2022-11-23T05:51:57.982Z,6.75
2022-11-23T05:55:00.677Z,6.70
2022-11-23T05:58:03.748Z,6.69
2022-11-23T06:01:06.564Z,6.73
2022-11-23T06:04:10.879Z,6.70
2022-11-23T06:07:16.979Z,6.66
2022-11-23T06:10:40.429Z,6.67
2022-11-23T06:13:48.208Z,6.65
2022-11-23T06:16:51.466Z,6.56
2022-11-23T06:20:13.231Z,6.45
2022-11-23T06:23:18.880Z,6.35
2022-11-23T06:26:20.644Z,6.34
2022-11-23T06:29:23.009Z,6.30
2022-11-23T06:32:24.591Z,6.13
2022-11-23T06:35:26.071Z,6.04
2022-11-23T06:38:28.179Z,6.00
2022-11-23T06:41:36.187Z,5.96
2022-11-23T06:44:38.177Z,5.80
2022-11-23T06:47:39.650Z,5.66
2022-11-23T06:50:42.221Z,5.65
2022-11-23T06:53:43.869Z,5.63
2022-11-23T06:56:47.602Z,5.50
2022-11-23T06:59:49.222Z,5.47
2022-11-23T07:02:56.773Z,5.33
2022-11-23T07:05:59.230Z,5.29
2022-11-23T07:09:03.346Z,5.20
2022-11-23T07:12:18.464Z,5.38
2022-11-23T07:15:20.000Z,5.46
2022-11-23T07:18:21.584Z,5.49
2022-11-23T07:21:28.615Z,5.52
2022-11-23T07:24:34.853Z,5.60
2022-11-23T07:27:42.002Z,5.68
2022-11-23T07:30:43.904Z,5.78
2022-11-23T07:33:46.187Z,5.82
2022-11-23T07:36:47.680Z,5.87
2022-11-23T07:39:57.458Z,5.89
2022-11-23T07:43:02.821Z,5.95
2022-11-23T07:46:04.288Z,5.96
2022-11-23T07:49:06.018Z,5.99
2022-11-23T07:52:07.471Z,6.05
2022-11-23T07:55:09.276Z,5.95
2022-11-23T07:58:11.383Z,5.95
2022-11-23T08:01:16.830Z,5.98
2022-11-23T08:04:18.230Z,6.11
2022-11-23T08:07:19.844Z,6.26
2022-11-23T08:10:21.330Z,6.36
2022-11-23T08:13:22.799Z,6.48
2022-11-23T08:16:24.252Z,6.60
2022-11-23T08:19:25.658Z,6.71
2022-11-23T08:22:27.123Z,6.69
2022-11-23T08:25:30.728Z,6.68
2022-11-23T08:28:32.899Z,6.67
2022-11-23T08:31:34.343Z,6.64
2022-11-23T08:34:35.838Z,6.63
2022-11-23T08:37:37.321Z,6.62
2022-11-23T08:40:39.031Z,6.66
2022-11-23T08:43:40.482Z,6.73
2022-11-23T08:46:41.893Z,6.80
2022-11-23T08:49:43.329Z,6.87
2022-11-23T08:52:44.873Z,7.00
2022-11-23T08:55:46.552Z,7.24
2022-11-23T08:58:48.136Z,7.46
2022-11-23T09:01:49.622Z,7.57
2022-11-23T09:04:51.208Z,7.65
2022-11-23T09:07:52.749Z,7.55
2022-11-23T09:10:54.587Z,7.32
2022-11-23T09:13:56.000Z,7.25
2022-11-23T09:16:57.450Z,7.14
2022-11-23T09:19:59.030Z,7.07
2022-11-23T09:23:00.527Z,6.98
2022-11-23T09:26:03.264Z,6.95
2022-11-23T09:29:05.919Z,6.96
2022-11-23T09:32:07.328Z,6.89
2022-11-23T09:35:09.064Z,6.88
2022-11-23T09:38:11.144Z,6.86
2022-11-23T09:41:31.020Z,6.83
2022-11-23T09:44:50.897Z,6.82
2022-11-23T09:48:07.566Z,6.83
2022-11-23T09:51:19.773Z,6.85
2022-11-23T09:54:37.009Z,6.88
2022-11-23T09:57:43.814Z,6.86
2022-11-23T10:00:55.646Z,6.94
2022-11-23T10:03:57.743Z,6.96
2022-11-23T10:07:11.840Z,6.95
2022-11-23T10:14:22.080Z,6.99
2022-11-23T10:17:52.146Z,7.02
2022-11-23T10:21:36.186Z,7.18
2022-11-23T10:24:43.872Z,7.22
2022-11-23T10:27:48.819Z,7.19
2022-11-23T10:31:01.215Z,7.19
2022-11-23T10:34:14.881Z,7.22
2022-11-23T10:37:17.982Z,7.26
2022-11-23T10:40:25.240Z,7.29
2022-11-23T10:43:32.202Z,7.21
2022-11-23T10:46:36.618Z,7.34
2022-11-23T10:49:38.072Z,7.24
2022-11-23T10:52:50.611Z,7.17
2022-11-23T10:55:54.974Z,7.05
2022-11-23T10:58:56.507Z,7.06
2022-11-23T11:02:18.440Z,7.06
2022-11-23T11:09:03.675Z,7.22
2022-11-23T11:12:05.736Z,7.22
2022-11-23T11:15:11.737Z,7.11
2022-11-23T11:18:18.680Z,7.04
2022-11-23T11:21:23.298Z,7.23
2022-11-23T11:24:36.070Z,7.47
2022-11-23T11:27:37.642Z,7.45
2022-11-23T11:31:03.066Z,7.43
2022-11-23T11:34:35.447Z,7.43
2022-11-23T11:37:42.857Z,7.48
2022-11-23T11:40:50.863Z,7.45
2022-11-23T11:43:58.009Z,7.63
2022-11-23T11:47:08.818Z,7.65
2022-11-23T11:50:32.325Z,7.69
2022-11-23T11:53:54.634Z,7.81
2022-11-23T11:57:07.063Z,7.94
2022-11-23T12:00:15.474Z,8.04
2022-11-23T12:03:36.351Z,7.96
2022-11-23T12:06:44.111Z,7.97
2022-11-23T12:09:50.998Z,8.00
2022-11-23T12:12:52.518Z,8.04
2022-11-23T12:16:04.973Z,8.12
2022-11-23T12:19:20.617Z,8.17
2022-11-23T12:22:49.608Z,7.89
2022-11-23T12:26:14.553Z,7.81
2022-11-23T12:29:29.743Z,7.80
2022-11-23T12:32:31.255Z,7.82
2022-11-23T12:36:00.276Z,7.98
2022-11-23T12:39:39.297Z,8.07
2022-11-23T12:42:49.111Z,8.10
2022-11-23T12:46:09.340Z,8.14
2022-11-23T12:49:29.159Z,8.15
2022-11-23T12:52:57.682Z,8.14
2022-11-23T12:56:10.259Z,8.10
2022-11-23T12:59:13.054Z,8.07
2022-11-23T13:02:44.757Z,8.01
2022-11-23T13:06:00.288Z,7.95
2022-11-23T13:09:21.284Z,7.88
2022-11-23T13:12:50.812Z,7.67
2022-11-23T13:16:19.169Z,7.49
2022-11-23T13:19:34.677Z,7.32
2022-11-23T13:22:38.062Z,7.18
2022-11-23T13:25:39.527Z,7.10
2022-11-23T13:28:41.699Z,7.05
2022-11-23T13:31:43.264Z,6.99
2022-11-23T13:34:46.907Z,6.95
2022-11-23T13:37:54.391Z,6.93
2022-11-23T13:40:59.659Z,6.89
2022-11-23T13:44:22.390Z,6.90
2022-11-23T13:47:24.007Z,6.88
2022-11-23T13:50:26.006Z,6.83
2022-11-23T13:53:36.929Z,6.81
2022-11-23T13:56:42.210Z,6.80
2022-11-23T13:59:43.706Z,6.78
2022-11-23T14:02:45.293Z,6.80
2022-11-23T14:05:49.743Z,6.81
2022-11-23T14:09:00.899Z,6.81
2022-11-23T14:12:11.414Z,6.82
2022-11-23T14:15:23.643Z,6.81
2022-11-23T14:19:12.465Z,6.82
2022-11-23T14:22:30.735Z,6.82
2022-11-23T14:25:47.546Z,6.82
2022-11-23T14:29:08.703Z,6.82
2022-11-23T14:32:16.113Z,6.82
2022-11-23T14:35:40.794Z,6.76
2022-11-23T14:39:09.762Z,6.76
2022-11-23T14:42:19.472Z,6.74
2022-11-23T14:45:24.534Z,6.72
2022-11-23T14:48:29.582Z,6.70
2022-11-23T14:51:31.340Z,6.71
2022-11-23T14:54:32.986Z,6.74
2022-11-23T14:57:43.904Z,6.73
2022-11-23T15:00:45.778Z,6.78
2022-11-23T15:03:56.690Z,6.78
2022-11-23T15:07:04.591Z,6.80
2022-11-23T15:10:25.974Z,6.81
2022-11-23T15:13:30.013Z,6.80
2022-11-23T15:16:40.140Z,6.79
2022-11-23T15:19:41.764Z,6.80
2022-11-23T15:22:43.678Z,6.80
2022-11-23T15:25:59.324Z,6.82
2022-11-23T15:29:01.323Z,6.79
2022-11-23T15:32:35.237Z,6.79
2022-11-23T15:35:39.584Z,6.78
2022-11-23T15:38:41.142Z,6.79
2022-11-23T15:41:43.156Z,6.79
2022-11-23T15:44:49.022Z,6.79
2022-11-23T15:47:52.296Z,6.80
2022-11-23T15:50:59.384Z,6.83
2022-11-23T15:57:26.724Z,6.89
2022-11-23T16:00:28.378Z,6.90
2022-11-23T16:03:33.982Z,6.92
2022-11-23T16:06:40.718Z,6.97
2022-11-23T16:09:52.736Z,6.97
2022-11-23T16:12:56.099Z,6.98
2022-11-23T16:16:02.476Z,6.98
2022-11-23T16:19:19.889Z,7.01
2022-11-23T16:22:27.708Z,7.03
2022-11-23T16:25:45.904Z,7.02
2022-11-23T16:28:58.209Z,7.02
2022-11-23T16:32:01.441Z,7.05
2022-11-23T16:35:16.823Z,7.01
2022-11-23T16:38:18.852Z,7.03
2022-11-23T16:41:23.388Z,7.06
2022-11-23T16:44:25.880Z,7.04
2022-11-23T16:47:32.172Z,7.03
2022-11-23T16:50:34.833Z,7.01
2022-11-23T16:54:07.851Z,7.01
2022-11-23T16:56:59.550Z,7.04
2022-11-23T17:00:06.115Z,6.97
2022-11-23T17:03:14.965Z,7.01
2022-11-23T17:06:17.186Z,6.89
2022-11-23T17:09:18.651Z,6.85
2022-11-23T17:12:20.627Z,6.82
2022-11-23T17:15:23.714Z,6.79
2022-11-23T17:18:25.176Z,6.70
2022-11-23T17:21:26.699Z,6.74
2022-11-23T17:24:28.359Z,6.70
2022-11-23T17:27:33.712Z,6.63
2022-11-23T17:30:35.208Z,6.56
2022-11-23T17:33:36.752Z,6.50
2022-11-23T17:36:38.738Z,6.52
2022-11-23T17:39:40.388Z,6.55
2022-11-23T17:42:42.934Z,6.53
2022-11-23T17:45:44.870Z,6.50
2022-11-23T17:48:46.980Z,6.47
2022-11-23T17:51:48.511Z,6.42
2022-11-23T17:54:51.060Z,6.42
2022-11-23T17:57:52.535Z,6.39
2022-11-23T18:00:54.012Z,6.40
2022-11-23T18:03:55.577Z,6.43
2022-11-23T18:06:57.032Z,6.30
2022-11-23T18:09:58.569Z,6.30
2022-11-23T18:13:00.012Z,6.26
2022-11-23T18:16:01.933Z,6.29
2022-11-23T18:19:03.491Z,6.24
2022-11-23T18:22:04.975Z,6.18
2022-11-23T18:25:06.659Z,6.20
2022-11-23T18:28:08.098Z,6.20
2022-11-23T18:31:09.734Z,6.06
2022-11-23T18:34:11.471Z,6.09
2022-11-23T18:37:12.977Z,6.00
2022-11-23T18:40:14.531Z,5.99
2022-11-23T18:43:16.177Z,6.03
2022-11-23T18:46:25.640Z,6.05
2022-11-23T18:49:36.689Z,5.96
2022-11-23T18:52:38.167Z,6.00
2022-11-23T18:55:39.692Z,5.92
2022-11-23T18:58:54.071Z,5.96
2022-11-23T19:01:57.283Z,5.91
2022-11-23T19:05:03.076Z,5.89
2022-11-23T19:08:07.893Z,5.90
2022-11-23T19:11:12.563Z,5.84
2022-11-23T19:14:14.155Z,5.83
2022-11-23T19:17:16.807Z,5.78
2022-11-23T19:20:18.360Z,5.89
2022-11-23T19:23:20.200Z,5.93
2022-11-23T19:26:35.457Z,5.98
2022-11-23T19:29:48.069Z,5.84
2022-11-23T19:33:10.207Z,5.91
2022-11-23T19:36:14.920Z,5.99
2022-11-23T19:39:16.684Z,5.95
2022-11-23T19:42:18.231Z,6.04
2022-11-23T19:45:20.087Z,5.98
2022-11-23T19:48:24.934Z,5.94
2022-11-23T19:51:27.391Z,5.96
2022-11-23T19:54:28.939Z,5.92
2022-11-23T19:57:30.406Z,5.95
2022-11-23T20:00:31.847Z,5.96
2022-11-23T20:03:38.019Z,5.80
2022-11-23T20:06:40.701Z,5.75
2022-11-23T20:09:42.156Z,5.78
2022-11-23T20:16:37.006Z,6.07
2022-11-23T20:19:41.981Z,6.18
2022-11-23T20:22:43.488Z,6.23
2022-11-23T20:25:45.013Z,6.21
2022-11-23T20:28:50.716Z,6.02
2022-11-23T20:31:52.228Z,5.92
2022-11-23T20:34:53.730Z,5.82
2022-11-23T20:37:55.697Z,5.82
2022-11-23T20:40:57.204Z,5.77
2022-11-23T20:44:00.975Z,5.73
2022-11-23T20:47:03.471Z,5.75
2022-11-23T20:50:06.368Z,5.93
2022-11-23T20:53:07.984Z,5.88
2022-11-23T20:56:11.579Z,5.93
2022-11-23T20:59:13.311Z,5.89
2022-11-23T21:02:14.977Z,6.02
2022-11-23T21:05:25.710Z,6.09
2022-11-23T21:08:34.443Z,6.14
2022-11-23T21:11:36.760Z,6.25
2022-11-23T21:14:38.500Z,6.22
2022-11-23T21:17:39.985Z,6.21
2022-11-23T21:20:41.471Z,6.28
2022-11-23T21:23:42.929Z,6.30
2022-11-23T21:26:44.914Z,6.31
2022-11-23T21:29:46.460Z,6.38
2022-11-23T21:32:50.858Z,6.32
2022-11-23T21:35:52.276Z,6.33
2022-11-23T21:38:53.765Z,6.32
2022-11-23T21:41:55.177Z,6.33
2022-11-23T21:44:56.622Z,6.43
2022-11-23T21:47:58.027Z,6.50
2022-11-23T21:51:13.235Z,6.49
2022-11-23T21:54:15.151Z,6.58
2022-11-23T21:57:16.656Z,6.62
2022-11-23T22:00:18.327Z,6.61
2022-11-23T22:03:19.779Z,6.61
2022-11-23T22:06:21.856Z,6.67
2022-11-23T22:09:23.327Z,6.64
2022-11-23T22:12:24.799Z,6.51
2022-11-23T22:15:26.417Z,6.48
2022-11-23T22:18:27.842Z,6.48
2022-11-23T22:21:47.942Z,6.56
2022-11-23T22:24:49.391Z,6.73
2022-11-23T22:27:54.087Z,6.79
2022-11-23T22:30:55.543Z,6.82
2022-11-23T22:33:57.041Z,6.76
2022-11-23T22:36:58.495Z,6.69
2022-11-23T22:40:00.102Z,6.75
2022-11-23T22:43:01.589Z,6.71
2022-11-23T22:46:05.852Z,6.72
2022-11-23T22:49:07.597Z,6.73
2022-11-23T22:52:09.108Z,6.79
2022-11-23T22:55:10.590Z,6.76
2022-11-23T22:58:12.055Z,6.87
2022-11-23T23:01:16.275Z,6.90
2022-11-23T23:04:17.632Z,7.00
2022-11-23T23:07:19.127Z,7.01
2022-11-23T23:10:20.710Z,7.04
2022-11-23T23:13:23.202Z,7.17
2022-11-23T23:16:25.625Z,7.14
2022-11-23T23:19:28.362Z,7.17
2022-11-23T23:22:29.826Z,7.16
2022-11-23T23:25:31.896Z,7.13
2022-11-23T23:28:33.815Z,7.19
2022-11-23T23:31:36.138Z,7.19
2022-11-23T23:34:37.615Z,7.14
2022-11-23T23:37:39.118Z,7.04
2022-11-23T23:40:40.630Z,6.95
2022-11-23T23:43:42.521Z,6.88
2022-11-23T23:46:43.973Z,6.79
2022-11-23T23:49:45.446Z,6.84
2022-11-23T23:52:46.906Z,6.80
2022-11-23T23:55:59.011Z,6.80
2022-11-23T23:59:00.469Z,6.78
